createdAt,value
2017-11-06T00:00:28.330Z,1013.04
2017-11-06T00:01:28.322Z,1013.07
2017-11-06T00:02:28.313Z,1013.10
2017-11-06T00:03:28.303Z,1013.06
2017-11-06T00:04:28.300Z,1013.09
2017-11-06T00:05:28.290Z,1013.11
2017-11-06T00:06:28.283Z,1013.10
2017-11-06T00:07:28.273Z,1013.16
2017-11-06T00:08:28.264Z,1013.13
2017-11-06T00:09:28.255Z,1013.20
2017-11-06T00:10:28.247Z,1013.14
2017-11-06T00:11:28.237Z,1013.19
2017-11-06T00:12:28.224Z,1013.17
2017-11-06T00:13:28.215Z,1013.25
2017-11-06T00:14:28.206Z,1013.26
2017-11-06T00:15:28.197Z,1013.26
2017-11-06T00:16:28.187Z,1013.24
2017-11-06T00:17:28.179Z,1013.30
2017-11-06T00:18:28.170Z,1013.26
2017-11-06T00:19:28.161Z,1013.26
2017-11-06T00:20:28.155Z,1013.28
2017-11-06T00:21:28.148Z,1013.30
2017-11-06T00:22:28.138Z,1013.26
2017-11-06T00:23:28.128Z,1013.31
2017-11-06T00:24:28.120Z,1013.32
2017-11-06T00:25:28.113Z,1013.32
2017-11-06T00:26:28.102Z,1013.35
2017-11-06T00:27:28.093Z,1013.34
2017-11-06T00:28:28.080Z,1013.35
2017-11-06T00:29:28.071Z,1013.32
2017-11-06T00:30:28.063Z,1013.36
2017-11-06T00:31:28.053Z,1013.32
2017-11-06T00:32:28.044Z,1013.41
2017-11-06T00:33:28.036Z,1013.39
2017-11-06T00:34:28.026Z,1013.33
2017-11-06T00:35:28.016Z,1013.37
2017-11-06T00:36:28.012Z,1013.42
2017-11-06T00:37:28.008Z,1013.39
2017-11-06T00:38:27.994Z,1013.43
2017-11-06T00:39:27.983Z,1013.45
2017-11-06T00:40:27.976Z,1013.47
2017-11-06T00:41:27.967Z,1013.50
2017-11-06T00:42:27.958Z,1013.55
2017-11-06T00:43:27.948Z,1013.48
2017-11-06T00:44:27.935Z,1013.51
2017-11-06T00:45:27.927Z,1013.53
2017-11-06T00:46:27.918Z,1013.55
2017-11-06T00:47:27.906Z,1013.55
2017-11-06T00:48:27.900Z,1013.55
2017-11-06T00:49:27.890Z,1013.56
2017-11-06T00:50:27.881Z,1013.58
2017-11-06T00:51:27.870Z,1013.56
2017-11-06T00:52:27.867Z,1013.60
2017-11-06T00:53:27.863Z,1013.65
2017-11-06T00:54:27.848Z,1013.63
2017-11-06T00:55:27.838Z,1013.67
2017-11-06T00:56:27.829Z,1013.64
2017-11-06T00:57:27.819Z,1013.69
2017-11-06T00:58:27.813Z,1013.67
2017-11-06T00:59:27.801Z,1013.70
2017-11-06T01:00:27.787Z,1013.65
2017-11-06T01:01:27.780Z,1013.61
2017-11-06T01:02:27.769Z,1013.63
2017-11-06T01:03:27.760Z,1013.68
2017-11-06T01:04:27.751Z,1013.68
2017-11-06T01:05:27.743Z,1013.68
2017-11-06T01:06:27.734Z,1013.74
2017-11-06T01:07:27.723Z,1013.78
2017-11-06T01:08:27.717Z,1013.79
2017-11-06T01:09:27.712Z,1013.76
2017-11-06T01:10:27.705Z,1013.72
2017-11-06T01:11:27.692Z,1013.75
2017-11-06T01:12:27.682Z,1013.77
2017-11-06T01:13:27.673Z,1013.80
2017-11-06T01:14:27.664Z,1013.76
2017-11-06T01:15:27.653Z,1013.72
2017-11-06T01:16:27.639Z,1013.78
2017-11-06T01:17:27.630Z,1013.80
2017-11-06T01:18:27.621Z,1013.79
2017-11-06T01:19:27.612Z,1013.74
2017-11-06T01:20:27.602Z,1013.77
2017-11-06T01:21:27.594Z,1013.78
2017-11-06T01:22:27.585Z,1013.80
2017-11-06T01:23:27.574Z,1013.87
2017-11-06T01:24:27.569Z,1013.80
2017-11-06T01:25:27.559Z,1013.88
2017-11-06T01:26:27.552Z,1013.88
2017-11-06T01:27:27.542Z,1013.89
2017-11-06T01:28:27.532Z,1013.89
2017-11-06T01:29:27.530Z,1013.91
2017-11-06T01:30:27.513Z,1013.84
2017-11-06T01:31:27.504Z,1013.92
2017-11-06T01:32:27.490Z,1013.91
2017-11-06T01:33:27.480Z,1013.93
2017-11-06T01:34:27.471Z,1013.91
2017-11-06T01:35:27.462Z,1013.92
2017-11-06T01:36:27.456Z,1013.95
2017-11-06T01:37:27.451Z,1013.94
2017-11-06T01:38:27.440Z,1013.97
2017-11-06T01:39:27.428Z,1013.94
2017-11-06T01:40:27.414Z,1013.94
2017-11-06T01:41:27.404Z,1013.97
2017-11-06T01:42:27.408Z,1014.01
2017-11-06T01:43:27.386Z,1013.98
2017-11-06T01:44:27.376Z,1014.01
2017-11-06T01:45:27.368Z,1014.01
2017-11-06T01:46:27.360Z,1014.07
2017-11-06T01:47:27.349Z,1014.02
2017-11-06T01:48:27.370Z,1014.07
2017-11-06T01:49:27.335Z,1014.13
2017-11-06T01:50:27.325Z,1014.07
2017-11-06T01:51:27.315Z,1014.11
2017-11-06T01:52:27.306Z,1014.09
2017-11-06T01:53:27.297Z,1014.08
2017-11-06T01:54:27.287Z,1014.09
2017-11-06T01:55:27.277Z,1014.10
2017-11-06T01:56:27.264Z,1014.11
2017-11-06T01:57:27.257Z,1014.13
2017-11-06T01:58:27.246Z,1014.14
2017-11-06T01:59:27.240Z,1014.15
2017-11-06T02:00:27.228Z,1014.13
2017-11-06T02:01:27.217Z,1014.18
2017-11-06T02:02:27.208Z,1014.18
2017-11-06T02:03:27.198Z,1014.19
2017-11-06T02:04:27.195Z,1014.22
2017-11-06T02:05:27.184Z,1014.22
2017-11-06T02:06:27.176Z,1014.16
2017-11-06T02:07:27.166Z,1014.14
2017-11-06T02:08:27.155Z,1014.09
2017-11-06T02:09:27.146Z,1014.10
2017-11-06T02:10:27.138Z,1014.15
2017-11-06T02:11:27.127Z,1014.17
2017-11-06T02:12:27.114Z,1014.19
2017-11-06T02:13:27.105Z,1014.19
2017-11-06T02:14:27.096Z,1014.15
2017-11-06T02:15:27.085Z,1014.12
2017-11-06T02:16:27.075Z,1014.15
2017-11-06T02:17:27.067Z,1014.14
2017-11-06T02:18:27.061Z,1014.21
2017-11-06T02:19:27.047Z,1014.25
2017-11-06T02:20:27.041Z,1014.21
2017-11-06T02:21:27.034Z,1014.16
2017-11-06T02:22:27.023Z,1014.23
2017-11-06T02:23:27.014Z,1014.20
2017-11-06T02:24:27.010Z,1014.24
2017-11-06T02:25:26.996Z,1014.22
2017-11-06T02:26:26.987Z,1014.24
2017-11-06T02:27:26.976Z,1014.25
2017-11-06T02:28:26.964Z,1014.31
2017-11-06T02:29:26.952Z,1014.28
2017-11-06T02:30:26.946Z,1014.28
2017-11-06T02:31:26.935Z,1014.31
2017-11-06T02:32:26.924Z,1014.34
2017-11-06T02:33:26.916Z,1014.33
2017-11-06T02:34:26.907Z,1014.36
2017-11-06T02:35:26.897Z,1014.34
2017-11-06T02:36:26.891Z,1014.37
2017-11-06T02:37:26.883Z,1014.42
2017-11-06T02:38:26.874Z,1014.42
2017-11-06T02:39:26.868Z,1014.45
2017-11-06T02:40:26.853Z,1014.46
2017-11-06T02:41:26.841Z,1014.48
2017-11-06T02:42:26.831Z,1014.42
2017-11-06T02:43:26.822Z,1014.48
2017-11-06T02:44:26.818Z,1014.42
2017-11-06T02:45:26.808Z,1014.44
2017-11-06T02:46:26.799Z,1014.43
2017-11-06T02:47:26.790Z,1014.45
2017-11-06T02:48:26.780Z,1014.47
2017-11-06T02:49:26.772Z,1014.49
2017-11-06T02:50:26.762Z,1014.45
2017-11-06T02:51:26.752Z,1014.46
2017-11-06T02:52:26.739Z,1014.46
2017-11-06T02:53:26.732Z,1014.43
2017-11-06T02:54:26.724Z,1014.46
2017-11-06T02:55:26.712Z,1014.48
2017-11-06T02:56:26.703Z,1014.43
2017-11-06T02:57:26.694Z,1014.54
2017-11-06T02:58:26.702Z,1014.51
2017-11-06T02:59:26.676Z,1014.55
2017-11-06T03:00:26.673Z,1014.60
2017-11-06T03:01:26.662Z,1014.58
2017-11-06T03:02:26.653Z,1014.61
2017-11-06T03:03:26.643Z,1014.64
2017-11-06T03:04:26.635Z,1014.60
2017-11-06T03:05:26.624Z,1014.65
2017-11-06T03:06:26.616Z,1014.77
2017-11-06T03:07:26.613Z,1014.72
2017-11-06T03:08:26.594Z,1014.71
2017-11-06T03:09:26.585Z,1014.76
2017-11-06T03:10:26.577Z,1014.72
2017-11-06T03:11:26.566Z,1014.76
2017-11-06T03:12:26.558Z,1014.73
2017-11-06T03:13:26.550Z,1014.69
2017-11-06T03:14:26.541Z,1014.70
2017-11-06T03:15:26.530Z,1014.74
2017-11-06T03:16:26.525Z,1014.71
2017-11-06T03:17:26.517Z,1014.75
2017-11-06T03:18:26.508Z,1014.73
2017-11-06T03:19:26.497Z,1014.76
2017-11-06T03:20:26.490Z,1014.73
2017-11-06T03:21:26.483Z,1014.78
2017-11-06T03:22:26.472Z,1014.80
2017-11-06T03:23:26.463Z,1014.83
2017-11-06T03:24:26.449Z,1014.83
2017-11-06T03:25:26.439Z,1014.80
2017-11-06T03:26:26.432Z,1014.83
2017-11-06T03:27:26.422Z,1014.88
2017-11-06T03:28:26.412Z,1014.84
2017-11-06T03:29:26.403Z,1014.84
2017-11-06T03:30:26.435Z,1014.85
2017-11-06T03:31:26.385Z,1014.81
2017-11-06T03:32:26.380Z,1014.89
2017-11-06T03:33:26.371Z,1014.88
2017-11-06T03:34:26.362Z,1014.94
2017-11-06T03:35:26.352Z,1014.92
2017-11-06T03:36:26.343Z,1014.94
2017-11-06T03:37:26.333Z,1014.96
2017-11-06T03:38:26.326Z,1015.00
2017-11-06T03:39:26.315Z,1015.07
2017-11-06T03:40:26.302Z,1015.08
2017-11-06T03:41:26.292Z,1015.06
2017-11-06T03:42:26.283Z,1015.06
2017-11-06T03:43:26.273Z,1015.15
2017-11-06T03:44:26.268Z,1015.17
2017-11-06T03:45:26.261Z,1015.17
2017-11-06T03:46:26.250Z,1015.18
2017-11-06T03:47:26.238Z,1015.17
2017-11-06T03:48:26.227Z,1015.25
2017-11-06T03:49:26.219Z,1015.25
2017-11-06T03:50:26.208Z,1015.29
2017-11-06T03:51:26.198Z,1015.30
2017-11-06T03:52:26.190Z,1015.28
2017-11-06T03:53:26.182Z,1015.28
2017-11-06T03:54:26.173Z,1015.35
2017-11-06T03:55:26.162Z,1015.32
2017-11-06T03:56:26.157Z,1015.32
2017-11-06T03:57:26.147Z,1015.37
2017-11-06T03:58:26.138Z,1015.34
2017-11-06T03:59:26.128Z,1015.35
2017-11-06T04:00:26.119Z,1015.39
2017-11-06T04:01:26.111Z,1015.40
2017-11-06T04:02:26.102Z,1015.38
2017-11-06T04:03:26.093Z,1015.36
2017-11-06T04:04:26.079Z,1015.42
2017-11-06T04:05:26.070Z,1015.43
2017-11-06T04:06:26.061Z,1015.43
2017-11-06T04:07:26.050Z,1015.50
2017-11-06T04:08:26.042Z,1015.47
2017-11-06T04:09:26.033Z,1015.45
2017-11-06T04:10:26.022Z,1015.51
2017-11-06T04:11:26.020Z,1015.54
2017-11-06T04:12:26.009Z,1015.58
2017-11-06T04:13:25.998Z,1015.57
2017-11-06T04:14:25.995Z,1015.54
2017-11-06T04:15:25.980Z,1015.55
2017-11-06T04:16:25.970Z,1015.57
2017-11-06T04:17:25.962Z,1015.56
2017-11-06T04:18:25.952Z,1015.53
2017-11-06T04:19:25.943Z,1015.53
2017-11-06T04:20:25.929Z,1015.50
2017-11-06T04:21:25.921Z,1015.58
2017-11-06T04:22:25.912Z,1015.58
2017-11-06T04:23:25.901Z,1015.59
2017-11-06T04:24:25.893Z,1015.62
2017-11-06T04:25:25.883Z,1015.63
2017-11-06T04:26:25.874Z,1015.67
2017-11-06T04:27:25.864Z,1015.68
2017-11-06T04:28:25.860Z,1015.70
2017-11-06T04:29:25.852Z,1015.68
2017-11-06T04:30:25.842Z,1015.70
2017-11-06T04:31:25.831Z,1015.73
2017-11-06T04:32:25.822Z,1015.70
2017-11-06T04:33:25.816Z,1015.76
2017-11-06T04:34:25.805Z,1015.76
2017-11-06T04:35:25.796Z,1015.84
2017-11-06T04:36:25.782Z,1015.81
2017-11-06T04:37:25.774Z,1015.77
2017-11-06T04:38:25.765Z,1015.83
2017-11-06T04:39:25.756Z,1015.82
2017-11-06T04:40:25.748Z,1015.84
2017-11-06T04:41:25.737Z,1015.80
2017-11-06T04:42:25.730Z,1015.85
2017-11-06T04:43:25.720Z,1015.85
2017-11-06T04:44:25.714Z,1015.87
2017-11-06T04:45:25.707Z,1015.83
2017-11-06T04:46:25.696Z,1015.89
2017-11-06T04:47:25.688Z,1015.88
2017-11-06T04:48:25.679Z,1015.96
2017-11-06T04:49:25.670Z,1015.98
2017-11-06T04:50:25.663Z,1016.01
2017-11-06T04:51:25.651Z,1016.01
2017-11-06T04:52:25.639Z,1015.96
2017-11-06T04:53:25.637Z,1015.94
2017-11-06T04:54:25.622Z,1015.97
2017-11-06T04:55:25.611Z,1015.99
2017-11-06T04:56:25.604Z,1016.01
2017-11-06T04:57:25.594Z,1016.02
2017-11-06T04:58:25.586Z,1016.00
2017-11-06T04:59:25.576Z,1015.98
2017-11-06T05:00:25.571Z,1016.02
2017-11-06T05:01:25.565Z,1015.99
2017-11-06T05:02:25.554Z,1016.04
2017-11-06T05:03:25.545Z,1016.09
2017-11-06T05:04:25.538Z,1015.99
2017-11-06T05:05:25.528Z,1016.04
2017-11-06T05:06:25.520Z,1016.09
2017-11-06T05:07:25.509Z,1016.15
2017-11-06T05:08:25.498Z,1016.12
2017-11-06T05:09:25.488Z,1016.20
2017-11-06T05:10:25.479Z,1016.22
2017-11-06T05:11:25.468Z,1016.21
2017-11-06T05:12:25.461Z,1016.18
2017-11-06T05:13:25.458Z,1016.16
2017-11-06T05:14:25.444Z,1016.24
2017-11-06T05:15:25.434Z,1016.25
2017-11-06T05:16:25.430Z,1016.33
2017-11-06T05:17:25.419Z,1016.28
2017-11-06T05:18:25.436Z,1016.33
2017-11-06T05:19:25.403Z,1016.28
2017-11-06T05:20:25.394Z,1016.32
2017-11-06T05:21:25.386Z,1016.32
2017-11-06T05:22:25.376Z,1016.34
2017-11-06T05:23:25.368Z,1016.36
2017-11-06T05:24:25.353Z,1016.34
2017-11-06T05:25:25.345Z,1016.44
2017-11-06T05:26:25.337Z,1016.49
2017-11-06T05:27:25.327Z,1016.55
2017-11-06T05:28:25.317Z,1016.59
2017-11-06T05:29:25.310Z,1016.59
2017-11-06T05:30:25.302Z,1016.61
2017-11-06T05:31:25.291Z,1016.63
2017-11-06T05:32:25.289Z,1016.62
2017-11-06T05:33:25.279Z,1016.65
2017-11-06T05:34:25.270Z,1016.64
2017-11-06T05:35:25.260Z,1016.67
2017-11-06T05:36:25.252Z,1016.65
2017-11-06T05:37:25.266Z,1016.66
2017-11-06T05:38:25.235Z,1016.65
2017-11-06T05:39:25.226Z,1016.67
2017-11-06T05:40:25.212Z,1016.64
2017-11-06T05:41:25.205Z,1016.65
2017-11-06T05:42:25.197Z,1016.66
2017-11-06T05:43:25.188Z,1016.73
2017-11-06T05:44:25.196Z,1016.75
2017-11-06T05:45:25.170Z,1016.73
2017-11-06T05:46:25.162Z,1016.69
2017-11-06T05:47:25.153Z,1016.70
2017-11-06T05:48:25.149Z,1016.72
2017-11-06T05:49:25.141Z,1016.68
2017-11-06T05:50:25.133Z,1016.75
2017-11-06T05:51:25.123Z,1016.72
2017-11-06T05:52:25.110Z,1016.79
2017-11-06T05:53:25.102Z,1016.78
2017-11-06T05:54:25.093Z,1016.78
2017-11-06T05:55:25.087Z,1016.82
2017-11-06T05:56:25.081Z,1016.83
2017-11-06T05:57:25.072Z,1016.84
2017-11-06T05:58:25.064Z,1016.83
2017-11-06T05:59:25.054Z,1016.86
2017-11-06T06:00:25.048Z,1016.88
2017-11-06T06:01:25.039Z,1016.86
2017-11-06T06:02:25.030Z,1016.93
2017-11-06T06:03:25.021Z,1016.94
2017-11-06T06:04:25.009Z,1016.92
2017-11-06T06:05:25.001Z,1016.97
2017-11-06T06:06:24.993Z,1017.00
2017-11-06T06:07:24.984Z,1016.92
2017-11-06T06:08:24.975Z,1016.96
2017-11-06T06:09:24.968Z,1016.98
2017-11-06T06:10:24.959Z,1016.99
2017-11-06T06:11:24.949Z,1017.03
2017-11-06T06:12:24.947Z,1017.03
2017-11-06T06:13:24.939Z,1017.04
2017-11-06T06:14:24.932Z,1017.00
2017-11-06T06:15:24.922Z,1017.07
2017-11-06T06:16:24.913Z,1017.06
2017-11-06T06:17:24.905Z,1017.05
2017-11-06T06:18:24.898Z,1017.07
2017-11-06T06:19:24.889Z,1017.07
2017-11-06T06:20:24.876Z,1017.15
2017-11-06T06:21:24.868Z,1017.12
2017-11-06T06:22:24.861Z,1017.14
2017-11-06T06:23:24.852Z,1017.17
2017-11-06T06:24:24.843Z,1017.14
2017-11-06T06:25:24.836Z,1017.22
2017-11-06T06:26:24.827Z,1017.24
2017-11-06T06:27:24.817Z,1017.19
2017-11-06T06:28:24.815Z,1017.25
2017-11-06T06:29:24.807Z,1017.25
2017-11-06T06:30:24.799Z,1017.32
2017-11-06T06:31:24.791Z,1017.25
2017-11-06T06:32:24.782Z,1017.35
2017-11-06T06:33:24.775Z,1017.32
2017-11-06T06:34:24.771Z,1017.36
2017-11-06T06:35:24.761Z,1017.37
2017-11-06T06:36:24.745Z,1017.41
2017-11-06T06:37:24.737Z,1017.41
2017-11-06T06:38:24.729Z,1017.45
2017-11-06T06:39:24.721Z,1017.43
2017-11-06T06:40:24.718Z,1017.45
2017-11-06T06:41:24.720Z,1017.49
2017-11-06T06:42:24.697Z,1017.51
2017-11-06T06:43:24.689Z,1017.43
2017-11-06T06:44:24.684Z,1017.43
2017-11-06T06:45:24.677Z,1017.41
2017-11-06T06:46:24.667Z,1017.49
2017-11-06T06:47:24.663Z,1017.51
2017-11-06T06:48:24.657Z,1017.53
2017-11-06T06:49:24.647Z,1017.57
2017-11-06T06:50:24.636Z,1017.56
2017-11-06T06:51:24.627Z,1017.55
2017-11-06T06:52:24.615Z,1017.56
2017-11-06T06:53:24.608Z,1017.59
2017-11-06T06:54:24.601Z,1017.61
2017-11-06T06:55:24.592Z,1017.63
2017-11-06T06:56:24.586Z,1017.57
2017-11-06T06:57:24.579Z,1017.58
2017-11-06T06:58:24.572Z,1017.62
2017-11-06T06:59:24.562Z,1017.61
2017-11-06T07:00:24.551Z,1017.57
2017-11-06T07:01:24.545Z,1017.58
2017-11-06T07:02:24.535Z,1017.62
2017-11-06T07:03:24.530Z,1017.59
2017-11-06T07:04:24.518Z,1017.64
2017-11-06T07:05:24.512Z,1017.68
2017-11-06T07:06:24.503Z,1017.74
2017-11-06T07:07:24.496Z,1017.75
2017-11-06T07:08:24.491Z,1017.74
2017-11-06T07:09:24.483Z,1017.79
2017-11-06T07:10:24.476Z,1017.81
2017-11-06T07:11:24.468Z,1017.80
2017-11-06T07:12:24.460Z,1017.86
2017-11-06T07:13:24.451Z,1017.90
2017-11-06T07:14:24.444Z,1017.95
2017-11-06T07:15:24.436Z,1017.92
2017-11-06T07:16:24.424Z,1017.95
2017-11-06T07:17:24.417Z,1017.95
2017-11-06T07:18:24.409Z,1017.98
2017-11-06T07:19:24.401Z,1017.98
2017-11-06T07:20:24.392Z,1018.04
2017-11-06T07:21:24.404Z,1018.06
2017-11-06T07:22:24.379Z,1018.10
2017-11-06T07:23:24.370Z,1018.11
2017-11-06T07:24:24.367Z,1018.09
2017-11-06T07:25:24.358Z,1018.15
2017-11-06T07:26:24.350Z,1018.15
2017-11-06T07:27:24.347Z,1018.14
2017-11-06T07:28:24.335Z,1018.19
2017-11-06T07:29:24.328Z,1018.17
2017-11-06T07:30:24.321Z,1018.24
2017-11-06T07:31:24.312Z,1018.26
2017-11-06T07:32:24.300Z,1018.26
2017-11-06T07:33:24.295Z,1018.32
2017-11-06T07:34:24.294Z,1018.37
2017-11-06T07:35:24.278Z,1018.33
2017-11-06T07:36:24.270Z,1018.30
2017-11-06T07:37:24.263Z,1018.36
2017-11-06T07:38:24.256Z,1018.35
2017-11-06T07:39:24.247Z,1018.37
2017-11-06T07:40:24.246Z,1018.40
2017-11-06T07:41:24.237Z,1018.43
2017-11-06T07:42:24.230Z,1018.36
2017-11-06T07:43:24.221Z,1018.37
2017-11-06T07:44:24.213Z,1018.40
2017-11-06T07:45:24.211Z,1018.42
2017-11-06T07:46:24.200Z,1018.44
2017-11-06T07:47:24.193Z,1018.44
2017-11-06T07:48:24.181Z,1018.39
2017-11-06T07:49:24.174Z,1018.46
2017-11-06T07:50:24.166Z,1018.43
2017-11-06T07:51:24.157Z,1018.46
2017-11-06T07:52:24.150Z,1018.41
2017-11-06T07:53:24.146Z,1018.53
2017-11-06T07:54:24.137Z,1018.55
2017-11-06T07:55:24.130Z,1018.55
2017-11-06T07:56:24.126Z,1018.52
2017-11-06T07:57:24.119Z,1018.51
2017-11-06T07:58:24.112Z,1018.59
2017-11-06T07:59:24.103Z,1018.56
2017-11-06T08:00:24.092Z,1018.62
2017-11-06T08:01:24.085Z,1018.63
2017-11-06T08:02:24.077Z,1018.65
2017-11-06T08:03:24.072Z,1018.62
2017-11-06T08:04:24.068Z,1018.68
2017-11-06T08:05:24.061Z,1018.70
2017-11-06T08:06:24.058Z,1018.82
2017-11-06T08:07:24.044Z,1018.82
2017-11-06T08:08:24.038Z,1018.78
2017-11-06T08:09:24.032Z,1018.88
2017-11-06T08:10:24.026Z,1018.78
2017-11-06T08:11:24.018Z,1018.86
2017-11-06T08:12:24.007Z,1018.90
2017-11-06T08:13:24.003Z,1018.96
2017-11-06T08:14:23.996Z,1019.29
2017-11-06T08:15:23.987Z,1019.33
2017-11-06T08:16:23.986Z,1019.38
2017-11-06T08:17:23.975Z,1019.39
2017-11-06T08:18:23.973Z,1019.50
2017-11-06T08:19:23.962Z,1019.45
2017-11-06T08:20:23.964Z,1019.49
2017-11-06T08:21:23.958Z,1019.48
2017-11-06T08:22:23.953Z,1019.49
2017-11-06T08:23:23.949Z,1019.48
2017-11-06T08:24:23.945Z,1019.44
2017-11-06T08:25:23.944Z,1019.52
2017-11-06T08:26:23.942Z,1019.04
2017-11-06T08:27:23.938Z,1019.07
2017-11-06T08:28:23.930Z,1019.07
2017-11-06T08:29:23.929Z,1019.03
2017-11-06T08:30:23.928Z,1019.03
2017-11-06T08:31:23.927Z,1019.01
2017-11-06T08:32:23.925Z,1019.03
2017-11-06T08:33:23.956Z,1019.04
2017-11-06T08:34:23.924Z,1019.06
2017-11-06T08:35:23.923Z,1019.10
2017-11-06T08:36:23.926Z,1019.20
2017-11-06T08:37:23.925Z,1019.18
2017-11-06T08:38:23.924Z,1019.13
2017-11-06T08:39:23.928Z,1019.26
2017-11-06T08:40:23.924Z,1019.22
2017-11-06T08:41:23.923Z,1019.29
2017-11-06T08:42:23.924Z,1019.23
2017-11-06T08:43:23.922Z,1019.18
2017-11-06T08:44:23.919Z,1019.16
2017-11-06T08:45:23.919Z,1019.14
2017-11-06T08:46:23.918Z,1019.13
2017-11-06T08:47:23.918Z,1019.13
2017-11-06T08:48:23.923Z,1019.13
2017-11-06T08:49:23.920Z,1019.14
2017-11-06T08:50:23.921Z,1019.14
2017-11-06T08:51:23.919Z,1019.20
2017-11-06T08:52:23.921Z,1019.22
2017-11-06T08:53:23.922Z,1019.17
2017-11-06T08:54:23.924Z,1019.23
2017-11-06T08:55:23.928Z,1019.21
2017-11-06T08:56:23.919Z,1019.22
2017-11-06T08:57:23.918Z,1019.28
2017-11-06T08:58:23.918Z,1019.28
2017-11-06T08:59:23.917Z,1019.36
2017-11-06T09:00:23.919Z,1019.35
2017-11-06T09:01:23.911Z,1019.32
2017-11-06T09:02:23.909Z,1019.28
2017-11-06T09:03:23.907Z,1019.31
2017-11-06T09:04:23.905Z,1019.27
2017-11-06T09:05:23.904Z,1019.28
2017-11-06T09:06:23.903Z,1019.25
2017-11-06T09:07:23.900Z,1019.28
2017-11-06T09:08:23.903Z,1019.35
2017-11-06T09:09:23.903Z,1019.34
2017-11-06T09:10:23.900Z,1019.36
2017-11-06T09:11:23.898Z,1019.39
2017-11-06T09:12:23.897Z,1019.33
2017-11-06T09:13:23.895Z,1019.34
2017-11-06T09:14:23.892Z,1019.31
2017-11-06T09:15:23.890Z,1019.29
2017-11-06T09:16:23.884Z,1019.31
2017-11-06T09:17:23.882Z,1019.34
2017-11-06T09:18:23.883Z,1019.33
2017-11-06T09:19:23.878Z,1019.34
2017-11-06T09:20:23.880Z,1019.37
2017-11-06T09:21:23.876Z,1019.40
2017-11-06T09:22:23.874Z,1019.35
2017-11-06T09:23:23.872Z,1019.35
2017-11-06T09:24:23.875Z,1019.37
2017-11-06T09:25:23.874Z,1019.44
2017-11-06T09:26:23.871Z,1019.43
2017-11-06T09:27:23.872Z,1019.51
2017-11-06T09:28:23.866Z,1019.48
2017-11-06T09:29:23.870Z,1019.60
2017-11-06T09:30:23.865Z,1019.53
2017-11-06T09:31:23.862Z,1019.63
2017-11-06T09:32:23.856Z,1019.50
2017-11-06T09:33:23.855Z,1019.63
2017-11-06T09:34:23.855Z,1019.57
2017-11-06T09:35:23.852Z,1019.59
2017-11-06T09:36:23.851Z,1019.65
2017-11-06T09:37:23.850Z,1019.57
2017-11-06T09:38:23.848Z,1019.69
2017-11-06T09:39:23.847Z,1019.69
2017-11-06T09:40:23.852Z,1019.70
2017-11-06T09:41:23.853Z,1019.71
2017-11-06T09:42:23.851Z,1019.79
2017-11-06T09:43:23.851Z,1019.78
2017-11-06T09:44:23.853Z,1019.77
2017-11-06T09:45:23.853Z,1019.79
2017-11-06T09:46:23.854Z,1019.83
2017-11-06T09:47:23.860Z,1019.84
2017-11-06T09:48:23.854Z,1019.92
2017-11-06T09:49:23.855Z,1019.92
2017-11-06T09:50:23.858Z,1019.91
2017-11-06T09:51:23.859Z,1019.93
2017-11-06T09:52:23.862Z,1019.93
2017-11-06T09:53:23.865Z,1019.98
2017-11-06T09:54:23.868Z,1020.03
2017-11-06T09:55:23.872Z,1020.02
2017-11-06T09:56:23.881Z,1020.01
2017-11-06T09:57:23.883Z,1020.04
2017-11-06T09:58:23.896Z,1020.00
2017-11-06T09:59:23.892Z,1020.02
2017-11-06T10:00:23.895Z,1020.03
2017-11-06T10:01:23.902Z,1020.06
2017-11-06T10:02:23.906Z,1020.04
2017-11-06T10:03:23.910Z,1020.08
2017-11-06T10:04:23.913Z,1020.19
2017-11-06T10:05:23.918Z,1020.21
2017-11-06T10:06:23.925Z,1020.21
2017-11-06T10:07:23.930Z,1020.20
2017-11-06T10:08:23.940Z,1020.23
2017-11-06T10:09:23.945Z,1020.24
2017-11-06T10:10:23.953Z,1020.21
2017-11-06T10:11:23.956Z,1020.22
2017-11-06T10:12:23.960Z,1020.15
2017-11-06T10:13:23.967Z,1020.18
2017-11-06T10:14:23.973Z,1020.18
2017-11-06T10:15:23.977Z,1020.19
2017-11-06T10:16:23.992Z,1020.17
2017-11-06T10:17:23.991Z,1020.22
2017-11-06T10:18:23.997Z,1020.17
2017-11-06T10:19:24.004Z,1020.21
2017-11-06T10:20:24.015Z,1020.20
2017-11-06T10:21:24.022Z,1020.18
2017-11-06T10:22:24.029Z,1020.23
2017-11-06T10:23:24.034Z,1020.20
2017-11-06T10:24:24.044Z,1020.17
2017-11-06T10:25:24.049Z,1020.20
2017-11-06T10:26:24.060Z,1020.19
2017-11-06T10:27:24.061Z,1020.19
2017-11-06T10:28:24.064Z,1020.22
2017-11-06T10:29:24.072Z,1020.22
2017-11-06T10:30:24.079Z,1020.18
2017-11-06T10:31:24.083Z,1020.31
2017-11-06T10:32:24.090Z,1020.28
2017-11-06T10:33:24.098Z,1020.24
2017-11-06T10:34:24.106Z,1020.26
2017-11-06T10:35:24.112Z,1020.28
2017-11-06T10:36:24.124Z,1020.20
2017-11-06T10:37:24.130Z,1020.21
2017-11-06T10:38:24.137Z,1020.22
2017-11-06T10:39:24.145Z,1020.19
2017-11-06T10:40:24.151Z,1020.25
2017-11-06T10:41:24.159Z,1020.23
2017-11-06T10:42:24.166Z,1020.22
2017-11-06T10:43:24.172Z,1020.21
2017-11-06T10:44:24.179Z,1020.20
2017-11-06T10:45:24.181Z,1020.19
2017-11-06T10:46:24.190Z,1020.24
2017-11-06T10:47:24.195Z,1020.25
2017-11-06T10:48:24.206Z,1020.18
2017-11-06T10:49:24.208Z,1020.21
2017-11-06T10:50:24.215Z,1020.19
2017-11-06T10:51:24.221Z,1020.17
2017-11-06T10:52:24.236Z,1020.17
2017-11-06T10:53:24.239Z,1020.20
2017-11-06T10:54:24.245Z,1020.22
2017-11-06T10:55:24.252Z,1020.26
2017-11-06T10:56:24.258Z,1020.16
2017-11-06T10:57:24.268Z,1020.24
2017-11-06T10:58:24.272Z,1020.22
2017-11-06T10:59:24.278Z,1020.32
2017-11-06T11:00:24.281Z,1020.26
2017-11-06T11:01:24.286Z,1020.25
2017-11-06T11:02:24.294Z,1020.24
2017-11-06T11:03:24.307Z,1020.20
2017-11-06T11:04:24.306Z,1020.17
2017-11-06T11:05:24.313Z,1020.15
2017-11-06T11:06:24.319Z,1020.17
2017-11-06T11:07:24.325Z,1020.21
2017-11-06T11:08:24.344Z,1020.17
2017-11-06T11:09:24.343Z,1020.18
2017-11-06T11:10:24.348Z,1020.13
2017-11-06T11:11:24.353Z,1020.09
2017-11-06T11:12:24.356Z,1020.13
2017-11-06T11:13:24.360Z,1020.14
2017-11-06T11:14:24.365Z,1020.10
2017-11-06T11:15:24.369Z,1020.08
2017-11-06T11:16:24.378Z,1020.14
2017-11-06T11:17:24.385Z,1020.10
2017-11-06T11:18:24.393Z,1020.04
2017-11-06T11:19:24.393Z,1020.05
2017-11-06T11:20:24.398Z,1020.02
2017-11-06T11:21:24.401Z,1020.00
2017-11-06T11:22:24.406Z,1020.01
2017-11-06T11:23:24.409Z,1019.95
2017-11-06T11:24:24.409Z,1019.96
2017-11-06T11:25:24.412Z,1020.00
2017-11-06T11:26:24.416Z,1019.99
2017-11-06T11:27:24.418Z,1019.97
2017-11-06T11:28:24.432Z,1019.97
2017-11-06T11:29:24.424Z,1019.97
2017-11-06T11:30:24.428Z,1019.99
2017-11-06T11:31:24.429Z,1020.02
2017-11-06T11:32:24.436Z,1020.04
2017-11-06T11:33:24.437Z,1020.07
2017-11-06T11:34:24.440Z,1020.00
2017-11-06T11:35:24.441Z,1020.01
2017-11-06T11:36:24.442Z,1019.98
2017-11-06T11:37:24.445Z,1019.96
2017-11-06T11:38:24.448Z,1019.92
2017-11-06T11:39:24.447Z,1019.89
2017-11-06T11:40:24.446Z,1019.89
2017-11-06T11:41:24.446Z,1019.95
2017-11-06T11:42:24.448Z,1019.91
2017-11-06T11:43:24.452Z,1019.94
2017-11-06T11:44:24.449Z,1019.95
2017-11-06T11:45:24.450Z,1019.92
2017-11-06T11:46:24.451Z,1019.92
2017-11-06T11:47:24.452Z,1019.99
2017-11-06T11:48:24.456Z,1019.90
2017-11-06T11:49:24.456Z,1019.95
2017-11-06T11:50:24.459Z,1019.91
2017-11-06T11:51:24.458Z,1019.93
2017-11-06T11:52:24.458Z,1019.92
2017-11-06T11:53:24.460Z,1019.97
2017-11-06T11:54:24.460Z,1019.96
2017-11-06T11:55:24.457Z,1019.95
2017-11-06T11:56:24.476Z,1019.92
2017-11-06T11:57:24.456Z,1019.94
2017-11-06T11:58:24.454Z,1019.91
2017-11-06T11:59:24.460Z,1019.92
2017-11-06T12:00:24.454Z,1019.99
2017-11-06T12:01:24.454Z,1019.96
2017-11-06T12:02:24.455Z,1019.96
2017-11-06T12:03:24.458Z,1019.97
2017-11-06T12:04:24.458Z,1019.97
2017-11-06T12:05:24.457Z,1020.02